Time;durP1;ratioP1;P1;durP2;ratioP2;P2;SDS_P1;SDS_P2;PMS_P1;PMS_P2;Temp;Humidity;BMP_temperature;BMP_pressure;BME280_temperature;BME280_humidity;BME280_pressure;Samples;Min_cycle;Max_cycle;Signal;HPM_P1;HPM_P2
2021/12/01 00:02:11;;;;;;;5.15;3.17;;;;;;;2.82;100.00;98158.53;5072062;28;20379;-79
2021/12/01 00:04:36;;;;;;;5.85;3.28;;;;;;;2.89;100.00;98178.81;5070848;28;20482;-79
2021/12/01 00:07:03;;;;;;;5.45;2.85;;;;;;;2.86;100.00;98178.09;5070458;28;20038;-79
2021/12/01 00:09:28;;;;;;;5.97;2.90;;;;;;;2.92;100.00;98194.13;5071609;28;20044;-79
2021/12/01 00:11:54;;;;;;;4.78;2.42;;;;;;;2.88;100.00;98191.72;5071876;28;20364;-79
2021/12/01 00:14:19;;;;;;;3.08;2.10;;;;;;;2.81;100.00;98174.88;5072352;28;20131;-79
2021/12/01 00:16:44;;;;;;;4.85;2.22;;;;;;;2.87;100.00;98208.91;5071824;28;20035;-79
2021/12/01 00:19:10;;;;;;;6.18;2.30;;;;;;;2.79;100.00;98195.50;5071882;28;20567;-79
2021/12/01 00:21:35;;;;;;;4.57;2.22;;;;;;;2.85;100.00;98208.09;5071874;28;20031;-79
2021/12/01 00:24:01;;;;;;;3.75;2.10;;;;;;;2.90;100.00;98216.47;5071546;28;20027;-79
2021/12/01 00:26:26;;;;;;;4.00;2.30;;;;;;;2.87;100.00;98223.50;5072207;28;20107;-79
2021/12/01 00:28:51;;;;;;;4.43;2.33;;;;;;;2.91;100.00;98233.59;5071605;28;20024;-79
2021/12/01 00:31:17;;;;;;;4.93;2.45;;;;;;;2.88;100.00;98236.28;5070518;28;20056;-79
2021/12/01 00:33:43;;;;;;;5.43;2.10;;;;;;;2.83;100.00;98247.66;5070553;28;20020;-79
2021/12/01 00:36:13;;;;;;;5.28;2.20;;;;;;;2.80;100.00;98247.75;5071534;28;20024;-79
2021/12/01 00:38:39;;;;;;;3.97;2.17;;;;;;;2.90;100.00;98259.34;5075440;28;20025;-79
2021/12/01 00:41:07;;;;;;;6.10;2.75;;;;;;;2.86;100.00;98265.50;5075558;28;20477;-79
2021/12/01 00:43:34;;;;;;;5.05;2.45;;;;;;;2.85;100.00;98263.84;5075934;28;20024;-79
2021/12/01 00:46:10;;;;;;;3.25;2.25;;;;;;;2.69;100.00;98254.13;5075665;28;20028;-78
2021/12/01 00:48:35;;;;;;;6.82;2.83;;;;;;;2.83;100.00;98268.22;5075761;28;20066;-79
2021/12/01 00:51:00;;;;;;;3.58;2.28;;;;;;;2.79;100.00;98267.50;5073903;28;20029;-79
2021/12/01 00:53:26;;;;;;;4.10;2.60;;;;;;;2.82;100.00;98285.34;5052906;28;20127;-79
2021/12/01 00:55:51;;;;;;;6.20;2.75;;;;;;;2.84;100.00;98290.47;5036184;28;20465;-79
2021/12/01 00:58:17;;;;;;;3.67;2.28;;;;;;;2.75;100.00;98281.34;5053240;28;20104;-79
2021/12/01 01:00:44;;;;;;;3.30;2.40;;;;;;;2.73;100.00;98281.41;5053103;28;20040;-79
2021/12/01 01:03:10;;;;;;;3.78;2.53;;;;;;;2.84;100.00;98295.59;5035957;28;20037;-79
2021/12/01 01:05:36;;;;;;;5.00;2.75;;;;;;;2.74;100.00;98287.41;5052899;28;20033;-79
2021/12/01 01:08:02;;;;;;;5.30;2.78;;;;;;;2.81;100.00;98298.28;5052448;28;20175;-79
2021/12/01 01:18:30;;;;;;;3.65;2.53;;;;;;;2.70;100.00;98319.25;5053039;28;20047;-79
2021/12/01 01:20:55;;;;;;;7.40;5.30;;;;;;;2.67;100.00;98329.63;5052372;28;20082;-79
2021/12/01 01:23:21;;;;;;;4.68;3.30;;;;;;;2.58;100.00;98338.50;5053760;28;20044;-78
2021/12/01 01:25:46;;;;;;;3.65;2.30;;;;;;;2.48;100.00;98332.84;5073668;28;20453;-79
2021/12/01 01:28:11;;;;;;;5.40;2.90;;;;;;;2.49;100.00;98334.53;5074699;28;20386;-79
2021/12/01 01:30:37;;;;;;;4.20;2.92;;;;;;;2.55;100.00;98345.50;5074771;28;20028;-79
2021/12/01 01:33:02;;;;;;;2.05;1.88;;;;;;;2.47;100.00;98336.31;5074899;28;20055;-78
2021/12/01 01:35:28;;;;;;;3.33;2.28;;;;;;;2.57;100.00;98347.13;5074867;28;20387;-79
2021/12/01 01:37:53;;;;;;;2.97;2.10;;;;;;;2.55;100.00;98355.78;5074798;28;20043;-79
2021/12/01 01:40:19;;;;;;;2.92;2.17;;;;;;;2.49;100.00;98342.25;5073701;28;20055;-78
2021/12/01 01:42:45;;;;;;;3.20;2.13;;;;;;;2.54;100.00;98349.78;5073551;28;20024;-79
2021/12/01 01:45:11;;;;;;;6.15;1.98;;;;;;;2.41;100.00;98341.69;5073221;28;20025;-79
2021/12/01 01:48:04;;;;;;;2.38;2.10;;;;;;;2.46;100.00;98372.34;5074844;28;20024;-79
2021/12/01 01:50:36;;;;;;;7.10;2.25;;;;;;;2.31;100.00;98355.72;5074086;28;20115;-79
2021/12/01 01:53:16;;;;;;;4.45;2.13;;;;;;;2.31;100.00;98375.44;5072969;28;20024;-79
2021/12/01 01:55:44;;;;;;;4.30;2.72;;;;;;;2.27;100.00;98371.28;5073042;28;20488;-79
2021/12/01 01:58:11;;;;;;;5.47;3.05;;;;;;;2.23;100.00;98378.25;5074330;28;20067;-79
2021/12/01 02:00:48;;;;;;;5.03;2.90;;;;;;;2.17;100.00;98374.16;5074722;28;20063;-79
2021/12/01 02:03:14;;;;;;;9.93;5.65;;;;;;;2.02;100.00;98366.94;5074165;28;20035;-79
2021/12/01 02:05:41;;;;;;;5.43;2.70;;;;;;;2.02;100.00;98377.22;5074266;28;20020;-79
2021/12/01 02:08:15;;;;;;;4.45;2.75;;;;;;;1.96;100.00;98378.28;5072540;28;20434;-79
2021/12/01 02:10:48;;;;;;;3.35;2.17;;;;;;;1.87;100.00;98373.44;5074303;28;20407;-79
2021/12/01 02:13:15;;;;;;;4.43;2.30;;;;;;;1.78;100.00;98372.91;5073987;28;20438;-79
2021/12/01 02:15:43;;;;;;;3.78;2.08;;;;;;;1.64;100.00;98361.31;5074111;28;20020;-79
2021/12/01 02:18:08;;;;;;;3.90;2.22;;;;;;;1.74;100.00;98372.16;5072456;28;20020;-79
2021/12/01 02:20:34;;;;;;;2.55;2.10;;;;;;;1.72;100.00;98386.75;5073926;28;20031;-79
2021/12/01 02:23:00;;;;;;;2.05;1.88;;;;;;;1.70;100.00;98389.38;5074206;28;20036;-79
2021/12/01 02:25:26;;;;;;;4.32;2.42;;;;;;;1.69;100.00;98397.97;5072664;28;20024;-79
2021/12/01 02:27:52;;;;;;;5.22;2.38;;;;;;;1.61;100.00;98392.22;5073887;28;20043;-79
2021/12/01 02:30:17;;;;;;;5.63;2.67;;;;;;;1.49;100.00;98385.72;5073532;28;20388;-78
2021/12/01 02:32:43;;;;;;;4.05;2.50;;;;;;;1.40;100.00;98386.00;5072509;28;20032;-78
2021/12/01 02:35:09;;;;;;;3.67;2.38;;;;;;;1.52;100.00;98412.16;5073458;28;20032;-79
2021/12/01 02:37:36;;;;;;;5.57;2.72;;;;;;;1.61;100.00;98423.03;5072524;28;20025;-79
2021/12/01 02:40:03;;;;;;;3.72;2.42;;;;;;;1.48;100.00;98406.31;5072281;28;20025;-79
2021/12/01 02:42:29;;;;;;;3.75;2.17;;;;;;;1.56;100.00;98440.28;5073472;28;20028;-79
2021/12/01 02:44:54;;;;;;;6.93;2.70;;;;;;;1.55;100.00;98438.59;5073292;28;20036;-78
2021/12/01 02:47:23;;;;;;;6.47;2.80;;;;;;;1.61;100.00;98443.56;5072135;28;20035;-79
2021/12/01 02:49:52;;;;;;;5.38;2.40;;;;;;;1.63;100.00;98446.91;5071825;28;20021;-79
2021/12/01 02:52:17;;;;;;;5.75;3.00;;;;;;;1.66;100.00;98443.41;5073195;28;20056;-79
2021/12/01 02:54:43;;;;;;;3.60;2.60;;;;;;;1.62;100.00;98427.25;5073337;28;20409;-79
2021/12/01 02:57:09;;;;;;;5.70;2.65;;;;;;;1.72;100.00;98435.50;5071811;28;20025;-79
2021/12/01 02:59:36;;;;;;;3.92;2.58;;;;;;;1.64;100.00;98417.78;5071636;28;20480;-79
2021/12/01 03:02:02;;;;;;;4.63;2.40;;;;;;;1.79;100.00;98436.19;5073274;28;20056;-79
2021/12/01 03:04:28;;;;;;;6.80;2.75;;;;;;;1.72;100.00;98426.06;5073527;28;20079;-79
2021/12/01 03:06:56;;;;;;;6.65;3.72;;;;;;;1.87;100.00;98442.75;5073258;28;20034;-79
2021/12/01 03:09:21;;;;;;;5.07;3.03;;;;;;;1.86;100.00;98442.81;5071555;28;20479;-79
2021/12/01 03:11:49;;;;;;;7.88;3.92;;;;;;;1.95;100.00;98450.22;5072223;28;20035;-79
2021/12/01 03:14:16;;;;;;;8.63;4.47;;;;;;;2.00;100.00;98451.75;5072898;28;20035;-79
2021/12/01 03:16:42;;;;;;;5.95;3.22;;;;;;;2.02;100.00;98451.69;5073248;28;20039;-79
2021/12/01 03:19:07;;;;;;;10.02;4.18;;;;;;;1.91;100.00;98421.22;5071601;28;20054;-79
2021/12/01 03:21:37;;;;;;;11.30;5.18;;;;;;;1.99;100.00;98438.97;5071665;28;20120;-79
2021/12/01 03:24:03;;;;;;;11.43;6.22;;;;;;;2.01;100.00;98434.63;5072865;28;20039;-79
2021/12/01 03:26:30;;;;;;;14.90;7.43;;;;;;;1.95;100.00;98427.94;5073058;28;20025;-79
2021/12/01 03:28:57;;;;;;;10.20;4.75;;;;;;;1.90;100.00;98429.00;5071543;28;20024;-79
2021/12/01 03:31:23;;;;;;;8.00;3.65;;;;;;;1.74;100.00;98416.63;5071234;28;20033;-79
2021/12/01 03:33:48;;;;;;;6.03;3.03;;;;;;;1.71;100.00;98414.13;5072699;28;20028;-79
2021/12/01 03:36:14;;;;;;;3.80;2.70;;;;;;;1.83;100.00;98435.19;5071054;28;20021;-78
2021/12/01 03:38:39;;;;;;;5.65;2.65;;;;;;;1.84;100.00;98422.31;5071270;28;20052;-79
2021/12/01 03:41:05;;;;;;;6.57;2.95;;;;;;;1.85;100.00;98421.41;5072084;28;20063;-79
2021/12/01 03:43:30;;;;;;;7.88;2.45;;;;;;;1.91;100.00;98428.09;5072641;28;20028;-79
2021/12/01 03:45:56;;;;;;;8.23;2.90;;;;;;;1.93;100.00;98424.56;5072253;28;20024;-79
2021/12/01 03:48:22;;;;;;;4.90;3.17;;;;;;;1.79;100.00;98398.50;5072199;28;20024;-79
2021/12/01 03:50:49;;;;;;;5.03;2.80;;;;;;;2.01;100.00;98424.34;5072261;28;20025;-79
2021/12/01 03:53:18;;;;;;;5.63;2.60;;;;;;;1.96;100.00;98418.53;5070790;28;20028;-79
2021/12/01 03:55:44;;;;;;;4.82;2.85;;;;;;;2.02;100.00;98420.88;5070954;28;20032;-79
2021/12/01 03:58:10;;;;;;;7.57;2.85;;;;;;;2.01;100.00;98424.34;5070596;28;20031;-79
2021/12/01 04:00:36;;;;;;;4.70;2.78;;;;;;;1.86;100.00;98391.47;5072042;28;20024;-79
2021/12/01 04:03:02;;;;;;;5.43;2.55;;;;;;;1.94;100.00;98410.03;5070690;28;20020;-79
2021/12/01 04:05:27;;;;;;;3.97;2.63;;;;;;;1.93;100.00;98406.59;5072026;28;20548;-79
2021/12/01 04:07:53;;;;;;;6.20;2.70;;;;;;;1.80;100.00;98401.91;5071917;28;20177;-79
2021/12/01 04:10:19;;;;;;;6.85;3.22;;;;;;;1.65;100.00;98391.25;5072112;28;20024;-79
2021/12/01 04:12:45;;;;;;;7.20;3.38;;;;;;;1.52;100.00;98387.38;5070070;28;20464;-79
2021/12/01 04:15:12;;;;;;;7.68;3.50;;;;;;;1.50;100.00;98399.41;5071689;28;20055;-79
2021/12/01 04:17:39;;;;;;;8.57;4.22;;;;;;;1.37;100.00;98392.97;5072048;28;20028;-79
2021/12/01 04:20:05;;;;;;;5.90;3.67;;;;;;;1.29;100.00;98394.91;5071528;28;20537;-79
2021/12/01 04:22:31;;;;;;;8.60;4.45;;;;;;;1.22;100.00;98386.53;5070563;28;20082;-79
2021/12/01 04:24:56;;;;;;;6.45;3.03;;;;;;;1.08;100.00;98380.97;5070691;28;20021;-79
2021/12/01 04:27:22;;;;;;;4.15;3.08;;;;;;;1.05;100.00;98381.88;5071624;28;20609;-79
2021/12/01 04:29:47;;;;;;;5.03;3.00;;;;;;;1.00;100.00;98394.84;5071660;28;20032;-79
2021/12/01 04:32:13;;;;;;;5.25;3.35;;;;;;;0.84;100.00;98367.94;5070483;28;20218;-79
2021/12/01 04:34:38;;;;;;;4.93;3.33;;;;;;;0.80;100.00;98376.63;5070527;28;20384;-79
2021/12/01 04:37:05;;;;;;;5.07;2.97;;;;;;;0.81;100.00;98388.56;5071673;28;20024;-79
2021/12/01 04:39:31;;;;;;;5.32;3.08;;;;;;;0.73;100.00;98375.13;5070576;28;20060;-79
2021/12/01 04:42:04;;;;;;;5.20;3.17;;;;;;;0.61;100.00;98367.75;5070531;28;20053;-79
2021/12/01 04:44:30;;;;;;;4.55;3.10;;;;;;;0.61;100.00;98383.13;5071776;28;20029;-79
2021/12/01 04:46:57;;;;;;;4.85;3.03;;;;;;;0.61;100.00;98401.06;5070456;28;20028;-79
2021/12/01 04:49:23;;;;;;;4.85;2.83;;;;;;;0.55;100.00;98390.97;5071491;28;20031;-79
2021/12/01 04:51:53;;;;;;;6.88;4.13;;;;;;;0.56;100.00;98384.97;5070503;28;20429;-79
2021/12/01 04:54:18;;;;;;;11.23;6.00;;;;;;;0.52;100.00;98388.50;5070035;28;20495;-79
2021/12/01 04:56:46;;;;;;;9.90;6.28;;;;;;;0.51;100.00;98369.75;5071475;28;20108;-79
2021/12/01 04:59:12;;;;;;;9.70;6.40;;;;;;;0.46;100.00;98374.13;5071610;28;20169;-79
2021/12/01 05:01:38;;;;;;;17.42;9.57;;;;;;;0.36;100.00;98357.31;5071511;28;20499;-79
2021/12/01 05:04:04;;;;;;;44.85;16.77;;;;;;;0.31;100.00;98356.59;5048562;28;20052;-78
2021/12/01 05:06:29;;;;;;;44.70;18.00;;;;;;;0.31;100.00;98384.78;5049058;28;20496;-78
2021/12/01 05:08:55;;;;;;;37.80;15.52;;;;;;;0.14;100.00;98365.56;5031831;28;20059;-79
2021/12/01 05:11:20;;;;;;;31.77;14.60;;;;;;;0.20;100.00;98373.06;5031943;28;20025;-79
2021/12/01 05:13:46;;;;;;;21.20;12.38;;;;;;;0.14;100.00;98370.69;5032313;28;20038;-79
2021/12/01 05:16:11;;;;;;;25.08;12.90;;;;;;;0.16;100.00;98384.28;5049083;28;20040;-79
2021/12/01 05:18:37;;;;;;;38.88;18.00;;;;;;;-0.02;100.00;98364.25;5049089;28;20095;-78
2021/12/01 05:21:03;;;;;;;26.33;15.30;;;;;;;-0.06;100.00;98370.31;5032215;28;20036;-79
2021/12/01 05:23:28;;;;;;;23.85;14.60;;;;;;;-0.13;100.00;98367.06;5050474;28;20079;-79
2021/12/01 05:25:54;;;;;;;25.40;14.70;;;;;;;-0.08;100.00;98362.69;5052371;28;20037;-79
2021/12/01 05:28:21;;;;;;;30.50;16.27;;;;;;;-0.25;100.00;98341.78;5052287;28;20053;-79
2021/12/01 05:30:48;;;;;;;28.55;15.07;;;;;;;-0.11;100.00;98373.00;5052372;28;20060;-79
2021/12/01 05:33:15;;;;;;;23.33;14.73;;;;;;;-0.21;100.00;98356.19;5052243;28;20037;-78
2021/12/01 05:35:46;;;;;;;28.25;16.75;;;;;;;-0.18;100.00;98361.22;5054195;28;20072;-79
2021/12/01 05:38:13;;;;;;;29.63;16.00;;;;;;;-0.18;100.00;98363.78;5055108;28;20025;-79
2021/12/01 05:40:39;;;;;;;26.92;13.93;;;;;;;-0.21;100.00;98353.63;5036738;28;20033;-79
2021/12/01 05:43:04;;;;;;;27.85;12.70;;;;;;;-0.24;100.00;98346.03;5036930;28;20021;-79
2021/12/01 05:45:30;;;;;;;25.45;12.57;;;;;;;-0.18;100.00;98350.97;5054802;28;20029;-79
2021/12/01 05:47:55;;;;;;;35.90;15.52;;;;;;;-0.07;100.00;98353.28;5054751;28;20453;-78
2021/12/01 05:50:21;;;;;;;45.33;18.60;;;;;;;-0.10;100.00;98332.88;5036512;28;20029;-78
2021/12/01 05:52:47;;;;;;;55.85;23.73;;;;;;;-0.02;100.00;98347.19;5054657;28;20102;-79
2021/12/01 05:55:12;;;;;;;122.22;50.58;;;;;;;0.04;100.00;98335.09;5054207;28;20029;-78
2021/12/01 05:57:38;;;;;;;97.40;42.08;;;;;;;0.04;100.00;98320.56;5054901;28;20032;-79
2021/12/01 06:00:07;;;;;;;65.15;32.20;;;;;;;0.13;100.00;98322.09;5036654;28;20071;-77
2021/12/01 06:02:32;;;;;;;65.50;25.90;;;;;;;0.27;100.00;98342.19;5053850;28;20119;-77
2021/12/01 06:04:58;;;;;;;58.55;21.55;;;;;;;0.19;100.00;98311.66;5054591;28;20112;-77
2021/12/01 06:07:23;;;;;;;68.60;21.40;;;;;;;0.31;100.00;98313.06;5053913;28;20503;-77
2021/12/01 06:09:49;;;;;;;72.72;26.92;;;;;;;0.36;100.00;98318.91;5072608;28;20044;-77
2021/12/01 06:12:14;;;;;;;78.10;31.73;;;;;;;0.38;100.00;98302.63;5073999;28;20433;-77
2021/12/01 06:14:44;;;;;;;62.17;27.83;;;;;;;0.47;100.00;98312.63;5074318;28;20024;-77
2021/12/01 06:17:10;;;;;;;69.45;33.20;;;;;;;0.55;100.00;98308.97;5073957;28;20141;-77
2021/12/01 06:19:37;;;;;;;204.80;95.35;;;;;;;0.57;100.00;98300.38;5074105;28;20028;-76
2021/12/01 06:22:03;;;;;;;137.88;62.60;;;;;;;0.63;100.00;98305.34;5073979;28;20021;-77
2021/12/01 06:24:28;;;;;;;117.03;53.60;;;;;;;0.57;100.00;98279.06;5073575;28;20037;-76
2021/12/01 06:26:54;;;;;;;61.60;29.98;;;;;;;0.70;100.00;98288.06;5072691;28;20495;-77
2021/12/01 06:29:19;;;;;;;28.27;11.57;;;;;;;0.72;100.00;98276.06;5073457;28;20483;-77
2021/12/01 06:31:45;;;;;;;20.52;9.90;;;;;;;0.82;100.00;98280.03;5074037;28;20025;-77
2021/12/01 06:34:10;;;;;;;11.20;5.68;;;;;;;0.86;100.00;98271.38;5073282;28;20027;-77
2021/12/01 06:36:36;;;;;;;12.70;6.30;;;;;;;1.03;100.00;98290.53;5071991;28;20028;-77
2021/12/01 06:39:04;;;;;;;13.15;7.07;;;;;;;0.99;100.00;98264.97;5073498;28;20483;-77
2021/12/01 06:41:29;;;;;;;12.98;6.50;;;;;;;1.18;100.00;98279.78;5073345;28;20020;-77
2021/12/01 06:43:54;;;;;;;15.05;8.60;;;;;;;1.14;100.00;98258.56;5073581;28;20025;-77
2021/12/01 06:46:22;;;;;;;32.95;15.07;;;;;;;1.23;100.00;98262.56;5073278;28;20426;-79
2021/12/01 06:48:49;;;;;;;51.60;24.70;;;;;;;1.25;100.00;98246.22;5073533;28;20029;-78
2021/12/01 06:51:15;;;;;;;44.42;22.42;;;;;;;1.42;100.00;98252.56;5072986;28;20039;-79
2021/12/01 06:53:41;;;;;;;25.55;14.38;;;;;;;1.39;100.00;98248.38;5072197;28;20029;-79
2021/12/01 06:56:08;;;;;;;23.55;13.15;;;;;;;1.43;100.00;98233.69;5073229;28;20078;-79
2021/12/01 06:58:33;;;;;;;21.58;11.60;;;;;;;1.52;100.00;98240.25;5073345;28;20033;-79
2021/12/01 07:00:59;;;;;;;26.27;15.15;;;;;;;1.50;100.00;98233.44;5073117;28;20024;-79
2021/12/01 07:03:24;;;;;;;22.35;12.82;;;;;;;1.58;100.00;98238.34;5072973;28;20115;-79
2021/12/01 07:05:50;;;;;;;15.85;7.82;;;;;;;1.42;100.00;98204.63;5071722;28;20024;-79
2021/12/01 07:08:17;;;;;;;18.65;9.77;;;;;;;1.45;100.00;98204.53;5072578;28;20051;-79
2021/12/01 07:10:42;;;;;;;34.85;18.85;;;;;;;1.55;100.00;98225.59;5072990;28;20032;-79
2021/12/01 07:13:08;;;;;;;42.58;17.75;;;;;;;1.61;100.00;98232.28;5071481;28;20024;-78
2021/12/01 07:15:34;;;;;;;25.77;13.20;;;;;;;1.64;100.00;98227.03;5072906;28;20021;-79
2021/12/01 07:17:59;;;;;;;23.08;13.80;;;;;;;1.61;100.00;98206.63;5072897;28;20460;-78
2021/12/01 07:20:25;;;;;;;18.65;9.95;;;;;;;1.69;100.00;98220.03;5072970;28;20081;-79
2021/12/01 07:22:50;;;;;;;16.30;8.02;;;;;;;1.73;100.00;98214.75;5072942;28;20082;-79
2021/12/01 07:25:15;;;;;;;18.35;10.73;;;;;;;1.78;100.00;98200.91;5072692;28;20032;-79
2021/12/01 07:27:41;;;;;;;17.95;8.63;;;;;;;1.81;100.00;98200.78;5072848;28;20434;-78
2021/12/01 07:30:07;;;;;;;24.10;13.25;;;;;;;1.87;100.00;98208.28;5072643;28;20072;-79
2021/12/01 07:32:33;;;;;;;20.52;10.68;;;;;;;1.91;100.00;98199.59;5072718;28;20435;-78
2021/12/01 07:34:59;;;;;;;23.80;8.90;;;;;;;1.93;100.00;98183.22;5072222;28;20075;-79
2021/12/01 07:37:25;;;;;;;26.65;10.80;;;;;;;2.06;100.00;98187.94;5070936;28;20056;-79
2021/12/01 07:39:51;;;;;;;17.33;7.68;;;;;;;1.98;100.00;98163.38;5071329;28;20051;-79
2021/12/01 07:42:17;;;;;;;16.67;8.43;;;;;;;2.05;100.00;98174.25;5072226;28;20069;-78
2021/12/01 07:44:43;;;;;;;17.73;7.75;;;;;;;2.09;100.00;98168.13;5072428;28;20095;-79
2021/12/01 07:47:10;;;;;;;20.00;7.35;;;;;;;2.09;100.00;98162.97;5071654;28;20032;-78
2021/12/01 07:49:36;;;;;;;28.15;12.45;;;;;;;2.05;100.00;98148.56;5070820;28;20021;-79
2021/12/01 07:52:03;;;;;;;20.10;9.40;;;;;;;2.03;100.00;98149.53;5029646;28;20088;-78
2021/12/01 07:54:30;;;;;;;24.33;12.25;;;;;;;1.94;100.00;98133.56;5029653;28;20088;-78
2021/12/01 07:56:55;;;;;;;32.70;16.50;;;;;;;1.82;100.00;98110.06;5029823;28;20068;-78
2021/12/01 07:59:20;;;;;;;32.88;18.73;;;;;;;1.93;100.00;98131.03;5013022;28;20485;-78
2021/12/01 08:01:46;;;;;;;35.67;15.98;;;;;;;1.88;100.00;98114.97;5029585;28;20037;-78
2021/12/01 08:04:13;;;;;;;22.58;10.18;;;;;;;1.91;100.00;98120.84;5029490;28;20457;-78
2021/12/01 08:06:40;;;;;;;23.77;11.18;;;;;;;1.88;100.00;98109.84;5029676;28;20132;-78
2021/12/01 08:09:06;;;;;;;20.80;10.27;;;;;;;1.98;100.00;98106.91;5012776;28;20041;-79
2021/12/01 08:11:33;;;;;;;22.15;8.57;;;;;;;1.96;100.00;98097.56;5029360;28;20052;-78
2021/12/01 08:13:59;;;;;;;24.75;14.00;;;;;;;1.95;100.00;98085.63;5013127;28;20033;-78
2021/12/01 08:16:24;;;;;;;22.20;13.20;;;;;;;2.03;100.00;98096.44;5009461;28;20433;-79
2021/12/01 08:18:55;;;;;;;22.23;10.90;;;;;;;2.04;100.00;98098.13;5009862;28;20108;-78
2021/12/01 08:21:24;;;;;;;23.25;11.48;;;;;;;2.07;100.00;98092.03;5009438;28;20556;-78
2021/12/01 08:23:51;;;;;;;23.35;10.05;;;;;;;2.01;100.00;98080.25;5042802;28;20603;-79
2021/12/01 08:26:17;;;;;;;19.83;8.50;;;;;;;2.10;100.00;98085.03;5032417;28;20033;-79
2021/12/01 08:28:45;;;;;;;18.05;9.15;;;;;;;2.00;100.00;98071.72;5049316;28;20441;-79
2021/12/01 08:31:11;;;;;;;19.13;10.13;;;;;;;2.08;100.00;98076.56;5032373;28;20388;-78
2021/12/01 08:33:36;;;;;;;23.00;9.45;;;;;;;2.07;100.00;98080.03;5032413;28;20044;-79
2021/12/01 08:36:02;;;;;;;19.98;9.63;;;;;;;2.05;100.00;98076.66;5032516;28;20035;-79
2021/12/01 08:38:27;;;;;;;50.35;24.35;;;;;;;2.03;100.00;98070.78;5048990;28;20458;-78
2021/12/01 08:40:52;;;;;;;92.22;44.85;;;;;;;2.10;100.00;98073.94;5049283;28;20488;-78
2021/12/01 08:43:18;;;;;;;72.50;42.85;;;;;;;2.13;100.00;98074.66;5032275;28;20036;-79
2021/12/01 08:45:43;;;;;;;42.50;27.30;;;;;;;2.17;100.00;98065.09;5049191;28;20116;-78
2021/12/01 08:48:09;;;;;;;44.42;26.90;;;;;;;2.09;100.00;98056.84;5049033;28;20037;-78
2021/12/01 08:50:35;;;;;;;33.03;18.25;;;;;;;2.21;100.00;98071.81;5049087;28;20040;-78
2021/12/01 08:53:00;;;;;;;26.15;14.88;;;;;;;2.23;100.00;98062.28;5035979;28;20036;-79
2021/12/01 08:55:27;;;;;;;32.28;17.17;;;;;;;2.22;100.00;98058.88;5071412;28;20036;-78
2021/12/01 08:57:52;;;;;;;24.27;13.95;;;;;;;2.18;100.00;98048.78;5060219;28;20477;-78
2021/12/01 09:00:20;;;;;;;33.15;15.68;;;;;;;2.19;100.00;98053.88;5071736;28;20036;-78
2021/12/01 09:02:45;;;;;;;33.90;17.33;;;;;;;2.11;100.00;98027.66;5054805;28;20119;-79
2021/12/01 09:05:11;;;;;;;34.90;15.82;;;;;;;2.12;100.00;98024.19;5057797;28;20017;-79
2021/12/01 09:07:36;;;;;;;24.35;13.35;;;;;;;2.26;100.00;98023.66;5073854;28;20123;-79
2021/12/01 09:10:03;;;;;;;26.98;14.65;;;;;;;2.28;100.00;98013.34;5037276;28;20029;-79
2021/12/01 09:12:29;;;;;;;35.25;16.63;;;;;;;2.30;100.00;97996.94;5054936;28;20029;-78
2021/12/01 09:14:55;;;;;;;27.75;14.88;;;;;;;2.44;100.00;98014.38;4999437;28;20422;-79
2021/12/01 09:17:21;;;;;;;30.20;14.57;;;;;;;2.41;100.00;97987.09;4992963;28;20097;-79
2021/12/01 09:19:47;;;;;;;27.88;15.30;;;;;;;2.54;100.00;98005.41;4976966;28;20034;-79
2021/12/01 09:22:13;;;;;;;27.55;14.80;;;;;;;2.56;100.00;97998.47;4993183;28;20097;-79
2021/12/01 09:24:39;;;;;;;34.10;15.70;;;;;;;2.62;100.00;97999.97;4993225;28;20043;-79
2021/12/01 09:27:05;;;;;;;24.60;13.65;;;;;;;2.63;100.00;97987.03;4976895;28;20500;-79
2021/12/01 09:29:30;;;;;;;25.40;12.00;;;;;;;2.74;100.00;97984.88;4992925;28;20577;-79
2021/12/01 09:31:58;;;;;;;29.35;15.63;;;;;;;2.77;100.00;97977.91;5005948;28;20040;-79
2021/12/01 09:34:23;;;;;;;29.65;15.98;;;;;;;2.83;100.00;97972.53;5012424;28;20069;-79
2021/12/01 09:36:49;;;;;;;30.77;15.48;;;;;;;2.74;100.00;97954.03;5012704;28;20438;-78
2021/12/01 09:39:14;;;;;;;24.15;13.23;;;;;;;2.80;100.00;97957.22;4995821;28;20393;-78
2021/12/01 09:41:41;;;;;;;24.77;13.88;;;;;;;2.78;100.00;97957.28;5012515;28;20034;-79
2021/12/01 09:44:06;;;;;;;26.08;13.75;;;;;;;2.91;100.00;97973.88;5012549;28;20030;-79
2021/12/01 09:46:32;;;;;;;27.88;14.32;;;;;;;2.84;100.00;97954.47;5031262;28;20583;-79
2021/12/01 09:48:58;;;;;;;26.88;14.82;;;;;;;2.85;100.00;97948.41;5054532;28;20081;-79
2021/12/01 09:51:24;;;;;;;29.45;17.23;;;;;;;2.91;100.00;97950.75;5054556;28;20036;-79
2021/12/01 09:53:52;;;;;;;33.55;19.88;;;;;;;3.01;100.00;97946.03;5054546;28;20039;-79
2021/12/01 09:56:17;;;;;;;32.00;16.98;;;;;;;3.16;100.00;97945.38;5036498;28;20124;-79
2021/12/01 09:58:43;;;;;;;39.08;18.10;;;;;;;3.13;100.00;97935.19;5054401;28;20071;-79
2021/12/01 10:01:15;;;;;;;30.60;16.08;;;;;;;3.23;100.00;97944.16;5054177;28;20036;-79
2021/12/01 10:03:41;;;;;;;53.70;23.10;;;;;;;3.31;100.00;97930.13;5054372;28;20021;-78
2021/12/01 10:06:17;;;;;;;23.42;12.93;;;;;;;3.42;100.00;97922.78;5040573;28;20119;-79
2021/12/01 10:08:46;;;;;;;49.58;19.35;;;;;;;3.52;100.00;97924.03;5031541;28;20048;-79
2021/12/01 10:11:16;;;;;;;34.45;15.95;;;;;;;3.61;100.00;97920.19;5052906;28;20028;-79
2021/12/01 10:13:48;;;;;;;30.80;17.50;;;;;;;3.69;100.00;97908.63;5052696;28;20056;-78
2021/12/01 10:16:16;;;;;;;40.10;22.80;;;;;;;3.61;100.00;97887.56;5053730;28;20032;-79
2021/12/01 10:18:44;;;;;;;35.03;19.73;;;;;;;3.70;100.00;97902.56;5052807;28;20032;-78
2021/12/01 10:21:16;;;;;;;34.42;20.65;;;;;;;3.65;100.00;97890.81;5052730;28;20036;-79
2021/12/01 10:23:44;;;;;;;36.60;21.20;;;;;;;3.83;100.00;97909.72;5031514;28;20045;-79
2021/12/01 10:26:45;;;;;;;35.15;21.95;;;;;;;3.84;100.00;97891.63;5014898;28;20606;-79
2021/12/01 10:29:20;;;;;;;31.58;18.52;;;;;;;3.82;100.00;97893.44;4972738;28;20190;-79
2021/12/01 10:31:58;;;;;;;52.70;28.77;;;;;;;3.80;100.00;97878.97;4972521;28;20065;-79
2021/12/01 10:34:43;;;;;;;29.88;16.48;;;;;;;3.82;100.00;97861.69;4972334;28;20130;-79
2021/12/01 10:37:18;;;;;;;37.65;23.33;;;;;;;3.92;100.00;97870.66;4972623;28;20036;-79
2021/12/01 10:39:48;;;;;;;25.13;17.42;;;;;;;3.88;100.00;97857.09;4972439;28;20074;-79
2021/12/01 10:42:16;;;;;;;25.02;15.20;;;;;;;3.81;100.00;97849.75;4972305;28;20126;-79
2021/12/01 10:44:57;;;;;;;19.70;12.90;;;;;;;3.85;100.00;97844.38;4972373;28;20227;-79
2021/12/01 10:47:22;;;;;;;22.63;11.55;;;;;;;3.92;100.00;97847.50;4972305;28;20030;-79
2021/12/01 10:49:48;;;;;;;13.20;9.75;;;;;;;3.90;100.00;97839.00;4972275;28;20500;-79
2021/12/01 10:52:34;;;;;;;17.33;10.82;;;;;;;3.88;100.00;97833.09;4971896;28;20030;-80
2021/12/01 10:55:17;;;;;;;18.02;11.77;;;;;;;3.91;100.00;97830.34;4984543;28;20496;-80
2021/12/01 10:57:47;;;;;;;15.77;11.13;;;;;;;3.95;100.00;97821.56;4991811;28;20049;-79
2021/12/01 11:00:22;;;;;;;17.77;10.33;;;;;;;3.92;100.00;97812.25;4975045;28;20130;-79
2021/12/01 11:02:49;;;;;;;26.98;15.35;;;;;;;3.84;100.00;97796.34;5012996;28;20295;-79
2021/12/01 11:05:37;;;;;;;25.65;15.15;;;;;;;3.92;100.00;97785.69;5059459;28;20393;-79
2021/12/01 11:08:16;;;;;;;29.25;17.20;;;;;;;3.92;100.00;97775.38;5069327;28;20048;-79
2021/12/01 11:10:44;;;;;;;52.38;24.15;;;;;;;3.96;100.00;97785.44;5053004;28;20488;-79
2021/12/01 11:13:10;;;;;;;40.00;19.88;;;;;;;3.87;100.00;97767.03;5053033;28;20041;-80
2021/12/01 11:15:45;;;;;;;52.58;24.70;;;;;;;3.94;100.00;97765.81;5052743;28;20028;-79
2021/12/01 11:18:22;;;;;;;35.70;18.77;;;;;;;3.96;100.00;97751.09;5052671;28;20025;-80
2021/12/01 11:20:50;;;;;;;34.67;19.27;;;;;;;3.95;100.00;97749.44;5034747;28;20117;-80
2021/12/01 11:23:32;;;;;;;27.75;15.93;;;;;;;3.95;100.00;97741.72;5052689;28;20039;-80
2021/12/01 11:26:04;;;;;;;22.55;13.60;;;;;;;3.94;100.00;97734.91;5034932;28;20029;-80
2021/12/01 11:28:32;;;;;;;17.02;10.88;;;;;;;3.86;100.00;97706.13;5052280;28;20029;-80
2021/12/01 11:31:01;;;;;;;12.63;10.02;;;;;;;4.00;100.00;97717.41;5034923;28;20025;-80
2021/12/01 11:33:33;;;;;;;20.05;14.75;;;;;;;4.02;100.00;97714.75;5052611;28;20334;-80